Time;durP1;ratioP1;P1;durP2;ratioP2;P2;SDS_P1;SDS_P2;PMS_P1;PMS_P2;Temp;Humidity;BMP_temperature;BMP_pressure;BME280_temperature;BME280_humidity;BME280_pressure;Samples;Min_cycle;Max_cycle;Signal;HPM_P1;HPM_P2
2021/07/21 00:01:51;;;;;;;45.78;19.40;;;;;;;13.56;100.00;102188.84;5202279;28;20033;-80
2021/07/21 00:04:22;;;;;;;45.47;19.10;;;;;;;13.56;100.00;102188.00;5222356;28;20078;-79
2021/07/21 00:06:53;;;;;;;42.97;18.55;;;;;;;13.51;100.00;102180.38;5187834;28;20025;-80
2021/07/21 00:09:23;;;;;;;49.95;20.13;;;;;;;13.51;100.00;102191.16;5191846;28;20017;-80
2021/07/21 00:14:43;;;;;;;49.70;20.08;;;;;;;13.44;100.00;102182.81;5181830;28;20104;-80
2021/07/21 00:17:23;;;;;;;50.35;22.38;;;;;;;13.42;100.00;102187.53;5190733;28;20033;-80
2021/07/21 00:20:06;;;;;;;47.20;19.98;;;;;;;13.42;100.00;102187.53;5206890;28;20364;-79
2021/07/21 00:22:39;;;;;;;57.17;22.13;;;;;;;13.41;100.00;102188.53;5212369;28;20025;-79
2021/07/21 00:25:13;;;;;;;47.35;18.83;;;;;;;13.43;100.00;102191.06;5209626;28;20021;-80
2021/07/21 00:27:44;;;;;;;49.88;18.92;;;;;;;13.42;100.00;102187.53;5210341;28;20439;-80
2021/07/21 00:30:18;;;;;;;48.53;18.80;;;;;;;13.39;100.00;102189.69;5214441;28;20052;-80
2021/07/21 00:32:49;;;;;;;56.00;21.88;;;;;;;13.38;100.00;102182.59;5215145;28;20111;-79
2021/07/21 00:35:19;;;;;;;54.55;21.02;;;;;;;13.34;100.00;102182.03;5210004;28;20035;-79
2021/07/21 00:37:50;;;;;;;49.47;20.50;;;;;;;13.31;100.00;102179.66;5191897;28;20032;-79
2021/07/21 00:40:20;;;;;;;49.63;20.95;;;;;;;13.27;100.00;102177.44;5194119;28;20029;-80
2021/07/21 00:42:52;;;;;;;51.80;20.63;;;;;;;13.21;100.00;102176.16;5215999;28;20053;-80
2021/07/21 00:45:22;;;;;;;52.47;21.38;;;;;;;13.18;100.00;102173.75;5216862;28;20446;-80
2021/07/21 00:47:53;;;;;;;53.92;21.15;;;;;;;13.14;100.00;102175.88;5213411;28;20029;-80
2021/07/21 00:50:23;;;;;;;51.08;20.48;;;;;;;13.12;100.00;102167.13;5214070;28;20396;-80
2021/07/21 00:52:54;;;;;;;60.40;22.27;;;;;;;13.08;100.00;102172.97;5218909;28;20096;-80
2021/07/21 00:55:26;;;;;;;53.60;21.67;;;;;;;13.03;100.00;102168.03;5219009;28;20108;-80
2021/07/21 00:57:57;;;;;;;53.47;21.30;;;;;;;13.01;100.00;102167.34;5213539;28;20036;-80
2021/07/21 01:00:28;;;;;;;53.15;21.13;;;;;;;12.99;100.00;102169.31;5212015;28;20025;-80
2021/07/21 01:02:58;;;;;;;47.03;18.92;;;;;;;12.97;100.00;102168.63;5207292;28;20112;-80
2021/07/21 01:05:31;;;;;;;45.50;18.52;;;;;;;12.94;100.00;102166.22;5221639;28;20049;-80
2021/07/21 01:08:02;;;;;;;56.05;22.63;;;;;;;12.92;100.00;102168.22;5216784;28;20029;-79
2021/07/21 01:11:14;;;;;;;55.03;21.40;;;;;;;12.89;100.00;102168.50;5211287;28;20028;-79
2021/07/21 01:14:04;;;;;;;56.13;21.85;;;;;;;12.86;100.00;102175.06;5194951;28;20029;-79
2021/07/21 01:16:39;;;;;;;50.00;20.33;;;;;;;12.82;100.00;102170.13;5195117;28;20030;-79
2021/07/21 01:19:17;;;;;;;57.17;21.77;;;;;;;12.80;100.00;102164.00;5199162;28;20033;-79
2021/07/21 01:21:58;;;;;;;51.50;20.70;;;;;;;12.80;100.00;102181.06;5200634;28;20030;-80
2021/07/21 01:24:51;;;;;;;53.30;20.23;;;;;;;12.78;100.00;102176.78;5217361;28;20064;-80
2021/07/21 01:27:28;;;;;;;44.10;17.80;;;;;;;12.77;100.00;102177.78;5200046;28;20680;-80
2021/07/21 01:30:07;;;;;;;58.88;20.77;;;;;;;12.76;100.00;102173.41;5217564;28;20396;-80
2021/07/21 01:32:39;;;;;;;53.75;22.20;;;;;;;12.71;100.00;102176.53;5199534;28;20033;-80
2021/07/21 01:35:16;;;;;;;50.42;19.40;;;;;;;12.68;100.00;102177.69;5212385;28;20483;-79
2021/07/21 01:37:53;;;;;;;47.83;19.17;;;;;;;12.65;100.00;102177.13;5212599;28;20029;-80
2021/07/21 01:40:28;;;;;;;55.50;22.67;;;;;;;12.59;100.00;102181.25;5215422;28;20025;-80
2021/07/21 01:43:01;;;;;;;53.35;21.33;;;;;;;12.56;100.00;102178.88;5200557;28;20032;-80
2021/07/21 01:45:34;;;;;;;54.15;20.23;;;;;;;12.53;100.00;102178.31;5216719;28;20048;-80
2021/07/21 01:48:07;;;;;;;47.17;19.90;;;;;;;12.48;100.00;102176.03;5206779;28;20037;-80
2021/07/21 01:50:49;;;;;;;48.45;20.55;;;;;;;12.46;100.00;102177.19;5217236;28;20501;-80
2021/07/21 01:53:21;;;;;;;49.38;19.58;;;;;;;12.43;100.00;102183.72;5213333;28;20078;-80
2021/07/21 01:55:53;;;;;;;52.28;21.40;;;;;;;12.38;100.00;102184.16;5211861;28;20067;-79
2021/07/21 01:58:28;;;;;;;53.42;21.80;;;;;;;12.36;100.00;102182.59;5216102;28;20099;-80
2021/07/21 02:00:59;;;;;;;63.47;23.02;;;;;;;12.33;100.00;102188.28;5210696;28;20391;-79
2021/07/21 02:03:31;;;;;;;49.45;20.85;;;;;;;12.30;100.00;102194.81;5224925;28;20016;-80
2021/07/21 02:06:06;;;;;;;56.10;21.55;;;;;;;12.27;100.00;102195.09;5188030;28;20022;-80
2021/07/21 02:08:55;;;;;;;50.63;21.20;;;;;;;12.27;100.00;102194.25;5217469;28;20108;-79
2021/07/21 02:11:32;;;;;;;56.75;21.40;;;;;;;12.23;100.00;102190.13;5216377;28;20029;-79
2021/07/21 02:14:04;;;;;;;50.53;20.10;;;;;;;12.18;100.00;102191.41;5211245;28;20399;-80
2021/07/21 02:16:37;;;;;;;52.65;21.15;;;;;;;12.13;100.00;102199.06;5194171;28;20025;-79
2021/07/21 02:19:08;;;;;;;54.60;21.17;;;;;;;12.13;100.00;102195.53;5215843;28;20017;-80
2021/07/21 02:21:41;;;;;;;53.45;20.17;;;;;;;12.11;100.00;102195.69;5200066;28;20426;-80
2021/07/21 02:24:11;;;;;;;51.58;20.52;;;;;;;12.09;100.00;102200.34;5213862;28;20383;-80
2021/07/21 02:26:42;;;;;;;53.50;21.52;;;;;;;12.05;100.00;102198.06;5211870;28;20074;-80
2021/07/21 02:29:14;;;;;;;48.05;20.67;;;;;;;12.03;100.00;102186.63;5213105;28;20064;-79
2021/07/21 02:31:54;;;;;;;52.35;20.23;;;;;;;12.03;100.00;102195.53;5217641;28;20041;-80
2021/07/21 02:34:24;;;;;;;57.78;20.50;;;;;;;12.02;100.00;102191.16;5216937;28;20025;-80
2021/07/21 02:36:56;;;;;;;57.97;21.92;;;;;;;11.96;100.00;102186.34;5211576;28;20511;-79
2021/07/21 02:39:27;;;;;;;66.95;23.17;;;;;;;11.94;100.00;102191.00;5209244;28;20104;-80
2021/07/21 02:41:57;;;;;;;56.00;22.38;;;;;;;11.91;100.00;102192.16;5197451;28;20096;-80
2021/07/21 02:44:28;;;;;;;51.10;21.35;;;;;;;11.88;100.00;102195.13;5216238;28;20031;-80
2021/07/21 02:46:58;;;;;;;57.65;21.88;;;;;;;11.85;100.00;102195.41;5195555;28;20047;-80
2021/07/21 02:49:29;;;;;;;54.50;20.95;;;;;;;11.84;100.00;102193.69;5209587;28;20547;-80
2021/07/21 02:52:09;;;;;;;52.42;20.35;;;;;;;11.82;100.00;102192.16;5214319;28;20483;-80
2021/07/21 02:54:47;;;;;;;47.83;20.38;;;;;;;11.76;100.00;102190.00;5217016;28;20091;-80
2021/07/21 02:57:28;;;;;;;56.60;21.15;;;;;;;11.71;100.00;102197.66;5204896;28;20049;-80
2021/07/21 03:00:06;;;;;;;55.83;21.27;;;;;;;11.68;100.00;102199.59;5193994;28;20426;-80
2021/07/21 03:02:38;;;;;;;63.38;23.45;;;;;;;11.70;100.00;102204.00;5212117;28;20039;-80
2021/07/21 03:05:13;;;;;;;60.00;22.33;;;;;;;11.72;100.00;102202.03;5212816;28;20081;-80
2021/07/21 03:07:48;;;;;;;57.13;22.35;;;;;;;11.72;100.00;102200.19;5210894;28;20024;-80
2021/07/21 03:10:20;;;;;;;57.30;21.40;;;;;;;11.72;100.00;102200.19;5209968;28;20073;-80
2021/07/21 03:13:08;;;;;;;50.90;20.70;;;;;;;11.66;100.00;102200.75;5213743;28;20087;-80
2021/07/21 03:15:40;;;;;;;50.92;20.10;;;;;;;11.59;100.00;102199.59;5217111;28;20511;-80
2021/07/21 03:18:14;;;;;;;45.05;19.15;;;;;;;11.54;100.00;102197.31;5217218;28;20025;-80
2021/07/21 03:20:48;;;;;;;52.70;20.02;;;;;;;11.52;100.00;102202.00;5192503;28;20024;-80
2021/07/21 03:23:20;;;;;;;47.50;19.20;;;;;;;11.49;100.00;102199.59;5209906;28;20094;-80
2021/07/21 03:25:52;;;;;;;50.58;19.58;;;;;;;11.48;100.00;102205.97;5214331;28;20044;-80
2021/07/21 03:28:24;;;;;;;50.00;20.55;;;;;;;11.49;100.00;102212.19;5216694;28;20029;-80
2021/07/21 03:30:56;;;;;;;52.85;20.85;;;;;;;11.52;100.00;102202.00;5213006;28;20032;-80
2021/07/21 03:33:28;;;;;;;63.10;24.33;;;;;;;11.55;100.00;102199.06;5192381;28;20415;-80
2021/07/21 03:36:01;;;;;;;63.22;23.73;;;;;;;11.55;100.00;102199.06;5193142;28;20033;-80
2021/07/21 03:38:33;;;;;;;63.15;21.85;;;;;;;11.55;100.00;102212.50;5210049;28;20316;-81
2021/07/21 03:41:03;;;;;;;56.17;21.73;;;;;;;11.52;100.00;102212.75;5208828;28;20467;-80
2021/07/21 03:43:35;;;;;;;51.70;21.60;;;;;;;11.46;100.00;102213.31;5214569;28;20076;-80
2021/07/21 03:46:06;;;;;;;51.83;20.98;;;;;;;11.47;100.00;102211.47;5216488;28;20049;-80
2021/07/21 03:48:38;;;;;;;46.25;19.27;;;;;;;11.41;100.00;102202.13;5212977;28;20499;-80
2021/07/21 03:51:09;;;;;;;51.45;20.90;;;;;;;11.38;100.00;102216.69;5208639;28;20040;-80
2021/07/21 03:53:41;;;;;;;52.45;20.88;;;;;;;11.35;100.00;102208.06;5211738;28;20025;-80
2021/07/21 03:56:11;;;;;;;47.70;20.95;;;;;;;11.32;100.00;102211.88;5216042;28;20036;-79
2021/07/21 03:58:42;;;;;;;49.17;20.55;;;;;;;11.33;100.00;102216.25;5202913;28;20055;-80
2021/07/21 04:01:13;;;;;;;43.90;18.85;;;;;;;11.31;100.00;102220.06;5214294;28;20025;-81
2021/07/21 04:03:46;;;;;;;52.42;20.67;;;;;;;11.29;100.00;102216.66;5216203;28;20139;-80
2021/07/21 04:06:18;;;;;;;49.80;20.30;;;;;;;11.32;100.00;102219.09;5193529;28;20036;-80
2021/07/21 04:08:55;;;;;;;52.33;19.55;;;;;;;11.37;100.00;102224.91;5187906;28;20033;-80
2021/07/21 04:11:27;;;;;;;54.00;21.83;;;;;;;11.39;100.00;102209.47;5210066;28;20052;-80
2021/07/21 04:13:58;;;;;;;43.60;19.63;;;;;;;11.41;100.00;102218.25;5198218;28;20480;-80
2021/07/21 04:16:33;;;;;;;53.72;20.10;;;;;;;11.42;100.00;102219.94;5215549;28;20029;-80
2021/07/21 04:19:06;;;;;;;53.53;21.55;;;;;;;11.45;100.00;102224.22;5214325;28;20026;-80
2021/07/21 04:21:40;;;;;;;65.57;24.13;;;;;;;11.52;100.00;102226.19;5197835;28;20028;-80
2021/07/21 04:24:12;;;;;;;49.85;20.40;;;;;;;11.60;100.00;102221.00;5194155;28;20017;-80
2021/07/21 04:26:43;;;;;;;46.45;20.77;;;;;;;11.60;100.00;102223.66;5192183;28;20387;-80
2021/07/21 04:29:17;;;;;;;55.03;21.08;;;;;;;11.62;100.00;102221.69;5193092;28;20434;-80
2021/07/21 04:31:49;;;;;;;54.63;21.60;;;;;;;11.69;100.00;102221.97;5220578;28;20036;-80
2021/07/21 04:34:20;;;;;;;54.65;22.52;;;;;;;11.75;100.00;102231.34;5176246;28;20104;-80
2021/07/21 04:36:51;;;;;;;54.60;21.73;;;;;;;11.83;100.00;102221.59;5190809;28;20448;-80
2021/07/21 04:39:22;;;;;;;56.13;19.83;;;;;;;11.84;100.00;102225.97;5208189;28;20034;-80
2021/07/21 04:41:55;;;;;;;56.40;21.38;;;;;;;11.93;100.00;102230.50;5209668;28;20433;-80
2021/07/21 04:44:25;;;;;;;52.63;22.20;;;;;;;12.02;100.00;102227.97;5209194;28;20035;-81
2021/07/21 04:46:58;;;;;;;49.88;21.55;;;;;;;12.12;100.00;102234.19;5213633;28;20013;-80
2021/07/21 04:49:29;;;;;;;51.10;19.75;;;;;;;12.21;100.00;102241.41;5214097;28;20049;-80
2021/07/21 04:52:03;;;;;;;53.45;21.58;;;;;;;12.32;100.00;102245.78;5212889;28;20021;-80
2021/07/21 04:54:34;;;;;;;47.00;19.58;;;;;;;12.43;100.00;102242.94;5208777;28;20094;-80
2021/07/21 04:57:07;;;;;;;48.22;19.98;;;;;;;12.55;100.00;102252.56;5210415;28;20450;-80
2021/07/21 04:59:38;;;;;;;48.72;20.60;;;;;;;12.62;100.00;102244.72;5214193;28;20091;-80
2021/07/21 05:02:10;;;;;;;47.20;18.55;;;;;;;12.72;100.00;102244.72;5197121;28;20376;-80
2021/07/21 05:04:40;;;;;;;47.40;19.20;;;;;;;12.84;100.00;102248.91;5175711;28;20025;-80
2021/07/21 05:07:12;;;;;;;40.22;19.13;;;;;;;12.96;100.00;102245.91;5206478;28;20075;-80
2021/07/21 05:09:43;;;;;;;42.13;18.13;;;;;;;13.08;100.00;102253.78;5192840;28;20021;-80
2021/07/21 05:12:14;;;;;;;39.45;17.75;;;;;;;13.16;100.00;102254.75;5205955;28;20074;-80
2021/07/21 05:14:44;;;;;;;45.50;19.27;;;;;;;13.31;100.00;102256.97;5210382;28;20031;-80
2021/07/21 05:17:14;;;;;;;43.78;19.38;;;;;;;13.40;100.00;102251.53;5215139;28;20395;-80
2021/07/21 05:19:45;;;;;;;44.00;18.80;;;;;;;13.51;100.00;102253.19;5183155;28;20498;-80
2021/07/21 05:22:15;;;;;;;45.70;20.92;;;;;;;13.63;100.00;102257.34;5214641;28;20041;-81
2021/07/21 05:24:46;;;;;;;51.85;21.67;;;;;;;13.76;100.00;102264.22;5214876;28;20458;-80
2021/07/21 05:27:16;;;;;;;45.63;20.15;;;;;;;13.90;100.00;102261.81;5210300;28;20039;-80
2021/07/21 05:29:47;;;;;;;49.95;21.88;;;;;;;14.04;100.00;102262.28;5191960;28;20507;-80
2021/07/21 05:32:18;;;;;;;45.50;22.35;;;;;;;14.40;100.00;102263.09;5216842;28;20026;-80
2021/07/21 05:34:48;;;;;;;45.60;20.35;;;;;;;15.39;100.00;102265.41;5218392;28;20071;-81
2021/07/21 05:37:18;;;;;;;43.08;19.00;;;;;;;16.52;100.00;102256.63;5215526;28;20040;-81
2021/07/21 05:39:49;;;;;;;36.40;17.77;;;;;;;17.56;100.00;102260.19;5173009;28;20087;-81
2021/07/21 05:42:19;;;;;;;32.50;16.15;;;;;;;18.43;100.00;102244.47;5216576;28;20063;-81
2021/07/21 05:44:50;;;;;;;35.42;16.20;;;;;;;19.32;100.00;102256.22;5212470;28;20657;-81
2021/07/21 05:47:20;;;;;;;32.83;16.67;;;;;;;19.94;100.00;102260.34;5212853;28;20078;-81
2021/07/21 05:49:51;;;;;;;27.08;14.60;;;;;;;20.54;100.00;102266.34;5217164;28;20028;-81
2021/07/21 05:52:21;;;;;;;31.40;15.63;;;;;;;20.94;100.00;102262.88;5218090;28;20025;-81
2021/07/21 05:54:52;;;;;;;30.48;15.13;;;;;;;21.61;100.00;102264.03;5212754;28;20036;-81
2021/07/21 05:57:24;;;;;;;28.95;15.48;;;;;;;22.18;100.00;102270.88;5212345;28;20018;-81
2021/07/21 05:59:55;;;;;;;32.92;17.08;;;;;;;21.83;100.00;102285.72;5197159;28;20120;-81
2021/07/21 06:02:25;;;;;;;31.35;17.13;;;;;;;21.91;100.00;102280.09;5221091;28;20277;-82
2021/07/21 06:04:56;;;;;;;34.88;16.92;;;;;;;22.78;100.00;102287.28;5224440;28;20017;-81
2021/07/21 06:07:26;;;;;;;34.65;17.85;;;;;;;22.80;100.00;102282.47;5210201;28;20452;-82
2021/07/21 06:09:57;;;;;;;39.92;18.20;;;;;;;23.40;100.00;102287.81;5211829;28;20511;-81
2021/07/21 06:12:27;;;;;;;31.80;17.50;;;;;;;23.45;100.00;102288.84;5217462;28;20511;-82
2021/07/21 06:14:57;;;;;;;37.78;18.83;;;;;;;23.03;100.00;102289.38;5217893;28;20522;-82
2021/07/21 06:17:28;;;;;;;33.33;17.48;;;;;;;23.20;100.00;102288.72;5212098;28;20360;-81
2021/07/21 06:19:59;;;;;;;33.90;18.15;;;;;;;23.31;100.00;102284.47;5210404;28;20515;-82
2021/07/21 06:22:33;;;;;;;35.38;17.83;;;;;;;23.26;100.00;102287.00;5216044;28;20026;-81
2021/07/21 06:25:04;;;;;;;32.45;17.63;;;;;;;23.29;100.00;102294.78;5217994;28;20029;-82
2021/07/21 06:27:35;;;;;;;33.20;17.58;;;;;;;23.57;100.00;102296.38;5197452;28;20049;-82
2021/07/21 06:30:07;;;;;;;33.83;17.30;;;;;;;23.62;100.00;102299.28;5209829;28;20065;-81
2021/07/21 06:32:38;;;;;;;32.70;16.88;;;;;;;23.68;100.00;102298.44;5213226;28;20384;-81
2021/07/21 06:35:10;;;;;;;30.10;17.15;;;;;;;23.75;100.00;102307.50;5199424;28;20037;-81
2021/07/21 06:37:40;;;;;;;29.23;16.40;;;;;;;24.14;99.38;102308.28;5204351;28;20308;-82
2021/07/21 06:40:11;;;;;;;32.45;16.73;;;;;;;23.92;100.00;102310.53;5197868;28;20034;-81
2021/07/21 06:42:41;;;;;;;32.47;17.92;;;;;;;23.35;100.00;102310.38;5198744;28;20029;-82
2021/07/21 06:45:12;;;;;;;32.70;17.17;;;;;;;23.03;100.00;102314.00;5195155;28;20021;-81
2021/07/21 06:47:42;;;;;;;30.27;16.63;;;;;;;22.47;100.00;102315.28;5211348;28;20037;-81
2021/07/21 06:50:13;;;;;;;30.25;15.88;;;;;;;22.27;100.00;102314.44;5213501;28;20026;-81
2021/07/21 06:52:44;;;;;;;30.45;15.23;;;;;;;22.71;100.00;102314.66;5217092;28;20065;-81
2021/07/21 06:55:15;;;;;;;31.60;15.27;;;;;;;22.39;100.00;102318.22;5197322;28;20399;-81
2021/07/21 06:57:46;;;;;;;25.83;13.75;;;;;;;22.13;100.00;102311.69;5188358;28;20029;-81
2021/07/21 07:00:16;;;;;;;24.17;13.55;;;;;;;21.88;100.00;102316.00;5202718;28;20023;-81
2021/07/21 07:02:47;;;;;;;32.03;14.30;;;;;;;21.42;100.00;102314.78;5222771;28;20025;-81
2021/07/21 07:05:18;;;;;;;30.45;14.77;;;;;;;20.66;100.00;102311.13;5220168;28;20091;-81
2021/07/21 07:07:49;;;;;;;27.77;14.10;;;;;;;20.83;100.00;102311.66;5212218;28;20479;-81
2021/07/21 07:10:19;;;;;;;25.92;14.05;;;;;;;21.03;100.00;102315.34;5192023;28;20029;-81
2021/07/21 07:12:50;;;;;;;23.95;12.43;;;;;;;21.15;100.00;102324.69;5196453;28;20105;-81
2021/07/21 07:15:20;;;;;;;24.73;13.00;;;;;;;20.92;100.00;102321.38;5199071;28;20026;-81
2021/07/21 07:17:51;;;;;;;22.55;11.52;;;;;;;21.24;100.00;102321.81;5203503;28;20104;-81
2021/07/21 07:20:21;;;;;;;28.17;12.73;;;;;;;21.04;100.00;102322.53;5220060;28;20033;-81
2021/07/21 07:22:51;;;;;;;27.15;11.75;;;;;;;21.03;100.00;102314.50;5211677;28;20030;-81
2021/07/21 07:25:22;;;;;;;23.08;12.38;;;;;;;21.11;100.00;102317.94;5216712;28;20026;-81
2021/07/21 07:27:52;;;;;;;25.60;11.95;;;;;;;21.30;100.00;102321.88;5199215;28;20029;-81
2021/07/21 07:30:24;;;;;;;19.88;11.00;;;;;;;21.14;100.00;102322.16;5209574;28;20424;-81
2021/07/21 07:32:54;;;;;;;19.48;10.48;;;;;;;21.36;100.00;102326.50;5221767;28;20112;-81
2021/07/21 07:35:25;;;;;;;25.05;10.10;;;;;;;21.58;100.00;102331.84;5211458;28;20115;-81
2021/07/21 07:37:56;;;;;;;20.23;10.38;;;;;;;21.83;100.00;102340.34;5210279;28;20147;-81
2021/07/21 07:40:27;;;;;;;22.65;10.60;;;;;;;21.65;100.00;102335.47;5212891;28;20033;-81
2021/07/21 07:42:57;;;;;;;23.08;11.30;;;;;;;21.88;100.00;102335.97;5198137;28;20480;-81
2021/07/21 07:45:27;;;;;;;21.10;10.32;;;;;;;22.19;100.00;102338.19;5214190;28;20028;-81
2021/07/21 07:47:58;;;;;;;19.95;10.00;;;;;;;22.31;100.00;102323.91;5185391;28;20033;-81
2021/07/21 07:50:29;;;;;;;22.77;10.95;;;;;;;22.56;100.00;102326.88;5213878;28;20024;-80
2021/07/21 07:52:59;;;;;;;21.30;10.18;;;;;;;22.38;100.00;102322.84;5203733;28;20029;-80
2021/07/21 07:55:34;;;;;;;23.38;9.93;;;;;;;22.77;100.00;102334.03;5198120;28;20021;-81
2021/07/21 07:58:05;;;;;;;21.92;10.23;;;;;;;23.04;100.00;102326.63;5211118;28;20029;-81
2021/07/21 08:00:35;;;;;;;16.10;8.57;;;;;;;23.16;100.00;102327.69;5208571;28;20522;-81
2021/07/21 08:03:07;;;;;;;16.58;9.13;;;;;;;23.21;100.00;102327.88;5204226;28;20021;-81
2021/07/21 08:05:38;;;;;;;12.05;7.75;;;;;;;23.26;100.00;102322.59;5217196;28;20421;-81
2021/07/21 08:08:08;;;;;;;12.20;7.55;;;;;;;23.42;93.01;102330.34;5213515;28;20032;-81
2021/07/21 08:10:38;;;;;;;14.25;7.38;;;;;;;23.43;81.49;102328.44;5208672;28;20017;-81
2021/07/21 08:13:09;;;;;;;13.45;6.30;;;;;;;23.46;79.16;102330.75;5210872;28;20399;-81
2021/07/21 08:15:39;;;;;;;13.63;6.95;;;;;;;23.45;83.29;102331.81;5215818;28;20395;-81
2021/07/21 08:18:12;;;;;;;9.95;6.38;;;;;;;23.44;75.14;102328.22;5197833;28;20060;-81
2021/07/21 08:20:43;;;;;;;11.48;6.30;;;;;;;23.35;76.72;102329.53;5190756;28;20033;-81
2021/07/21 08:23:15;;;;;;;11.98;6.07;;;;;;;23.24;80.08;102320.09;5209246;28;20496;-82
2021/07/21 08:25:45;;;;;;;17.30;7.70;;;;;;;23.65;85.61;102326.28;5196591;28;20032;-81
2021/07/21 08:28:16;;;;;;;10.77;6.30;;;;;;;23.90;76.72;102329.97;5215873;28;20480;-81
2021/07/21 08:30:48;;;;;;;12.77;7.10;;;;;;;23.92;84.34;102332.47;5211563;28;20460;-81
2021/07/21 08:33:18;;;;;;;15.07;6.07;;;;;;;23.91;79.02;102320.66;5191207;28;20044;-81
2021/07/21 08:35:49;;;;;;;15.48;7.13;;;;;;;24.13;72.82;102329.38;5211306;28;20460;-81
2021/07/21 08:38:19;;;;;;;16.45;7.97;;;;;;;23.87;81.22;102327.66;5197956;28;20025;-81
2021/07/21 08:40:54;;;;;;;16.95;7.68;;;;;;;24.05;72.60;102321.44;5214082;28;20542;-81
2021/07/21 08:43:25;;;;;;;14.93;7.60;;;;;;;24.31;71.07;102320.41;5209388;28;20021;-81
2021/07/21 08:45:58;;;;;;;18.45;7.93;;;;;;;24.32;76.50;102327.56;5209568;28;20104;-81
2021/07/21 08:48:28;;;;;;;13.63;7.55;;;;;;;24.60;65.46;102327.19;5214100;28;20029;-82
2021/07/21 08:50:59;;;;;;;14.35;7.97;;;;;;;24.59;69.06;102327.41;5203829;28;20031;-81
2021/07/21 08:53:30;;;;;;;12.85;7.10;;;;;;;24.76;61.85;102317.53;5194682;28;20390;-81
2021/07/21 08:56:00;;;;;;;14.45;8.35;;;;;;;24.86;64.66;102323.38;5214926;28;20137;-81
2021/07/21 08:58:31;;;;;;;16.25;7.80;;;;;;;24.80;66.39;102318.78;5195774;28;20025;-81
2021/07/21 09:01:02;;;;;;;15.05;7.50;;;;;;;24.57;76.13;102324.03;5190268;28;20029;-81
2021/07/21 09:03:32;;;;;;;9.93;6.97;;;;;;;24.64;66.95;102331.13;5221881;28;20025;-81
2021/07/21 09:06:03;;;;;;;12.90;6.43;;;;;;;24.61;65.98;102325.28;5216796;28;20091;-82
2021/07/21 09:08:34;;;;;;;10.63;6.18;;;;;;;24.53;60.39;102323.66;5219288;28;20544;-81
2021/07/21 09:11:05;;;;;;;11.73;5.47;;;;;;;24.39;61.17;102322.91;5213044;28;20128;-81
2021/07/21 09:13:36;;;;;;;10.35;4.95;;;;;;;24.54;63.35;102317.91;5213074;28;20108;-81
2021/07/21 09:16:07;;;;;;;9.38;5.30;;;;;;;24.65;56.56;102324.63;5216385;28;20057;-81
2021/07/21 09:18:48;;;;;;;13.23;5.53;;;;;;;24.64;57.63;102324.81;5219628;28;20112;-80
2021/07/21 09:21:21;;;;;;;10.55;5.90;;;;;;;24.80;60.02;102325.09;5217065;28;20296;-82
2021/07/21 09:23:55;;;;;;;12.85;6.07;;;;;;;24.83;61.50;102331.19;5212957;28;20406;-81
2021/07/21 09:26:26;;;;;;;22.20;6.53;;;;;;;24.68;64.31;102323.31;5213102;28;20017;-81
2021/07/21 09:28:59;;;;;;;10.38;5.85;;;;;;;24.83;64.61;102331.19;5216527;28;20056;-81
2021/07/21 09:31:33;;;;;;;10.13;6.07;;;;;;;25.23;62.05;102323.41;5199729;28;20029;-81
2021/07/21 09:34:14;;;;;;;10.60;5.60;;;;;;;25.24;60.39;102325.09;5216258;28;20438;-81
2021/07/21 09:36:44;;;;;;;10.65;6.32;;;;;;;25.39;61.45;102328.31;5206645;28;20025;-81
2021/07/21 09:39:15;;;;;;;11.93;6.53;;;;;;;25.48;62.92;102328.84;5217937;28;20372;-81
2021/07/21 09:41:52;;;;;;;12.80;6.82;;;;;;;25.69;60.07;102324.75;5212103;28;20079;-81
2021/07/21 09:44:33;;;;;;;14.63;6.65;;;;;;;25.89;56.02;102325.38;5212124;28;20029;-81
2021/07/21 09:47:14;;;;;;;12.82;6.45;;;;;;;25.68;57.57;102334.09;5197614;28;20021;-81
2021/07/21 09:49:46;;;;;;;14.20;6.13;;;;;;;25.74;57.32;102323.00;5217297;28;20029;-81
2021/07/21 09:52:21;;;;;;;15.63;6.53;;;;;;;25.61;60.13;102327.84;5218016;28;20035;-81
2021/07/21 09:55:04;;;;;;;;;;;;;;;25.91;57.36;102326.00;5213809;28;20415;-81
2021/07/21 09:57:37;;;;;;;13.02;7.35;;;;;;;26.04;53.71;102331.28;5212368;28;19909;-81
2021/07/21 10:00:18;;;;;;;12.50;6.85;;;;;;;25.90;54.94;102327.03;5213000;28;20094;-81
2021/07/21 10:02:50;;;;;;;12.60;6.93;;;;;;;25.68;53.97;102326.69;5223389;28;20037;-81
2021/07/21 10:05:21;;;;;;;14.38;7.50;;;;;;;25.82;56.69;102322.72;5221457;28;20028;-82
2021/07/21 10:07:51;;;;;;;16.10;7.50;;;;;;;25.76;59.33;102331.91;5213839;28;20021;-81
2021/07/21 10:10:22;;;;;;;20.50;7.40;;;;;;;25.77;57.09;102330.81;5211015;28;20192;-81
2021/07/21 10:12:59;;;;;;;9.07;6.05;;;;;;;25.95;60.77;102331.84;5214686;28;20029;-81
2021/07/21 10:15:30;;;;;;;11.68;6.78;;;;;;;26.13;62.29;102330.97;5218168;28;20035;-81
2021/07/21 10:18:12;;;;;;;13.80;6.38;;;;;;;26.34;53.57;102328.50;5217449;28;20025;-81
2021/07/21 10:20:44;;;;;;;14.10;6.22;;;;;;;26.46;57.65;102330.47;5199666;28;20099;-81
2021/07/21 10:23:17;;;;;;;11.02;6.05;;;;;;;26.51;54.37;102319.59;5199559;28;20516;-82
2021/07/21 10:25:47;;;;;;;11.32;6.28;;;;;;;26.25;55.97;102335.41;5204478;28;20406;-81
2021/07/21 10:28:18;;;;;;;12.15;6.60;;;;;;;26.48;53.10;102325.56;5217616;28;20025;-81
2021/07/21 10:30:49;;;;;;;10.40;6.00;;;;;;;26.39;53.73;102333.28;5196792;28;20039;-81
2021/07/21 10:33:20;;;;;;;11.38;6.28;;;;;;;26.45;58.09;102328.78;5211111;28;20533;-81
2021/07/21 10:35:52;;;;;;;11.38;6.63;;;;;;;26.44;51.79;102327.94;5212227;28;20022;-82
2021/07/21 10:38:23;;;;;;;16.00;6.53;;;;;;;26.33;57.93;102328.75;5210968;28;20024;-81
2021/07/21 10:40:54;;;;;;;10.52;6.40;;;;;;;26.44;55.61;102329.88;5210440;28;20083;-81
2021/07/21 10:43:29;;;;;;;12.45;6.43;;;;;;;26.46;53.18;102322.22;5216052;28;20446;-81
2021/07/21 10:46:02;;;;;;;14.43;7.55;;;;;;;26.68;54.45;102315.06;5217468;28;20790;-81
2021/07/21 10:48:45;;;;;;;14.18;7.25;;;;;;;26.67;54.41;102312.56;5213937;28;20483;-81
2021/07/21 10:51:38;;;;;;;11.60;7.03;;;;;;;26.85;48.62;102316.00;5209944;28;20032;-82
2021/07/21 10:54:27;;;;;;;10.00;6.25;;;;;;;26.54;49.07;102319.13;5208570;28;20033;-81
2021/07/21 11:00:05;;;;;;;;;;;;;;;26.58;51.08;102310.16;5214204;28;20072;-82
2021/07/21 11:02:36;;;;;;;11.50;6.25;;;;;;;26.39;55.36;102325.03;5210692;28;20283;-81
2021/07/21 11:05:09;;;;;;;11.82;7.60;;;;;;;26.49;51.09;102310.72;5222279;28;20036;-81
2021/07/21 11:07:50;;;;;;;12.80;7.15;;;;;;;26.78;52.84;102311.72;5210631;28;20131;-81
2021/07/21 11:10:42;;;;;;;14.48;7.38;;;;;;;26.80;51.33;102307.63;5191935;28;20440;-81
2021/07/21 11:13:34;;;;;;;10.18;6.47;;;;;;;26.84;51.61;102313.50;5193841;28;20083;-81
2021/07/21 11:16:05;;;;;;;10.77;6.47;;;;;;;27.15;49.69;102305.97;5213301;28;20438;-81
2021/07/21 11:18:40;;;;;;;10.27;7.05;;;;;;;27.02;53.92;102305.13;5210986;28;20075;-81
2021/07/21 11:21:17;;;;;;;;;;;;;;;27.03;61.10;102301.28;5211746;28;20029;-80
2021/07/21 11:23:53;;;;;;;12.27;7.13;;;;;;;27.20;53.93;102297.81;5209092;28;19913;-80
2021/07/21 11:26:36;;;;;;;11.95;6.95;;;;;;;27.57;48.78;102301.09;5209798;28;20028;-81
2021/07/21 11:29:39;;;;;;;15.13;6.97;;;;;;;27.40;50.39;102302.91;5212255;28;20043;-81
2021/07/21 11:32:24;;;;;;;12.65;7.22;;;;;;;27.41;46.02;102296.31;5211355;28;20028;-81
2021/07/21 11:34:55;;;;;;;11.68;6.90;;;;;;;27.32;47.56;102293.13;5210361;28;20025;-81
2021/07/21 11:37:29;;;;;;;15.70;7.40;;;;;;;27.35;48.96;102300.88;5211909;28;20028;-81
2021/07/21 11:40:14;;;;;;;11.85;6.88;;;;;;;27.20;47.91;102306.91;5208852;28;20032;-81